sensor_id;sensor_type;location;lat;lon;timestamp;pressure;altitude;pressure_sealevel;temperature;humidity
6829;BME280;17930;48.592;8.868;2023-04-03T00:00:07;97453.50;;;3.75;100.00
6829;BME280;17930;48.592;8.868;2023-04-03T00:02:35;97446.47;;;3.64;100.00
6829;BME280;17930;48.592;8.868;2023-04-03T00:05:01;97441.72;;;3.61;100.00
6829;BME280;17930;48.592;8.868;2023-04-03T00:07:28;97441.94;;;3.60;100.00
6829;BME280;17930;48.592;8.868;2023-04-03T00:09:54;97444.94;;;3.57;100.00
6829;BME280;17930;48.592;8.868;2023-04-03T00:12:22;97446.16;;;3.55;100.00
6829;BME280;17930;48.592;8.868;2023-04-03T00:14:49;97454.66;;;3.55;100.00
6829;BME280;17930;48.592;8.868;2023-04-03T00:17:16;97451.72;;;3.76;100.00
6829;BME280;17930;48.592;8.868;2023-04-03T00:19:42;97458.31;;;3.72;100.00
6829;BME280;17930;48.592;8.868;2023-04-03T00:22:09;97452.66;;;3.57;100.00
6829;BME280;17930;48.592;8.868;2023-04-03T00:24:35;97454.44;;;3.81;100.00
6829;BME280;17930;48.592;8.868;2023-04-03T00:27:02;97455.66;;;3.54;100.00
6829;BME280;17930;48.592;8.868;2023-04-03T00:29:34;97453.94;;;3.48;100.00
6829;BME280;17930;48.592;8.868;2023-04-03T00:32:01;97446.19;;;3.48;100.00
6829;BME280;17930;48.592;8.868;2023-04-03T00:34:28;97448.78;;;3.48;100.00
6829;BME280;17930;48.592;8.868;2023-04-03T00:36:55;97446.97;;;3.73;100.00
6829;BME280;17930;48.592;8.868;2023-04-03T00:39:21;97447.41;;;3.70;100.00
6829;BME280;17930;48.592;8.868;2023-04-03T00:41:48;97444.25;;;3.68;100.00
6829;BME280;17930;48.592;8.868;2023-04-03T00:44:22;97447.78;;;3.73;100.00
6829;BME280;17930;48.592;8.868;2023-04-03T00:47:12;97449.50;;;3.55;100.00
6829;BME280;17930;48.592;8.868;2023-04-03T00:49:40;97445.97;;;3.50;100.00
6829;BME280;17930;48.592;8.868;2023-04-03T00:52:10;97450.91;;;3.75;100.00
6829;BME280;17930;48.592;8.868;2023-04-03T00:54:38;97449.09;;;3.58;100.00
6829;BME280;17930;48.592;8.868;2023-04-03T00:57:07;97448.97;;;3.71;100.00
6829;BME280;17930;48.592;8.868;2023-04-03T00:59:39;97444.06;;;3.63;100.00
6829;BME280;17930;48.592;8.868;2023-04-03T01:02:10;97444.28;;;3.61;100.00
6829;BME280;17930;48.592;8.868;2023-04-03T01:04:39;97438.19;;;3.80;100.00
6829;BME280;17930;48.592;8.868;2023-04-03T01:07:08;97441.47;;;3.69;100.00
6829;BME280;17930;48.592;8.868;2023-04-03T01:09:36;97447.78;;;3.73;100.00
6829;BME280;17930;48.592;8.868;2023-04-03T01:12:13;97444.47;;;3.66;100.00
6829;BME280;17930;48.592;8.868;2023-04-03T01:14:41;97447.72;;;3.80;100.00
6829;BME280;17930;48.592;8.868;2023-04-03T01:17:33;97438.56;;;3.59;100.00
6829;BME280;17930;48.592;8.868;2023-04-03T01:23:14;97447.19;;;3.47;100.00
6829;BME280;17930;48.592;8.868;2023-04-03T01:25:46;97447.25;;;3.41;100.00
6829;BME280;17930;48.592;8.868;2023-04-03T01:28:17;97451.00;;;3.45;100.00
6829;BME280;17930;48.592;8.868;2023-04-03T01:30:47;97454.28;;;3.52;100.00
6829;BME280;17930;48.592;8.868;2023-04-03T01:33:18;97449.09;;;3.58;100.00
6829;BME280;17930;48.592;8.868;2023-04-03T01:35:45;97447.09;;;3.60;100.00
6829;BME280;17930;48.592;8.868;2023-04-03T01:38:12;97451.50;;;3.53;100.00
6829;BME280;17930;48.592;8.868;2023-04-03T01:40:39;97456.81;;;3.58;100.00
6829;BME280;17930;48.592;8.868;2023-04-03T01:43:05;97450.69;;;3.59;100.00
6829;BME280;17930;48.592;8.868;2023-04-03T01:45:32;97447.50;;;3.57;100.00
6829;BME280;17930;48.592;8.868;2023-04-03T01:47:58;97450.50;;;3.54;100.00
6829;BME280;17930;48.592;8.868;2023-04-03T01:50:26;97450.59;;;3.41;100.00
6829;BME280;17930;48.592;8.868;2023-04-03T01:52:53;97448.56;;;3.25;100.00
6829;BME280;17930;48.592;8.868;2023-04-03T01:55:19;97445.69;;;3.33;100.00
6829;BME280;17930;48.592;8.868;2023-04-03T01:57:46;97442.59;;;3.25;100.00
6829;BME280;17930;48.592;8.868;2023-04-03T02:00:13;97446.28;;;3.11;100.00
6829;BME280;17930;48.592;8.868;2023-04-03T02:02:41;97442.66;;;3.18;100.00
6829;BME280;17930;48.592;8.868;2023-04-03T02:05:08;97440.69;;;3.14;100.00
6829;BME280;17930;48.592;8.868;2023-04-03T02:07:36;97444.22;;;3.19;100.00
6829;BME280;17930;48.592;8.868;2023-04-03T02:10:03;97442.34;;;3.02;100.00
6829;BME280;17930;48.592;8.868;2023-04-03T02:12:30;97447.53;;;2.96;100.00
6829;BME280;17930;48.592;8.868;2023-04-03T02:14:56;97441.91;;;3.11;100.00
6829;BME280;17930;48.592;8.868;2023-04-03T02:17:23;97451.63;;;3.09;100.00
6829;BME280;17930;48.592;8.868;2023-04-03T02:19:50;97448.72;;;3.00;100.00
6829;BME280;17930;48.592;8.868;2023-04-03T02:22:16;97449.91;;;2.97;100.00
6829;BME280;17930;48.592;8.868;2023-04-03T02:24:45;97443.63;;;2.87;100.00
6829;BME280;17930;48.592;8.868;2023-04-03T02:27:11;97451.75;;;2.84;100.00
6829;BME280;17930;48.592;8.868;2023-04-03T02:29:38;97453.69;;;2.95;100.00
6829;BME280;17930;48.592;8.868;2023-04-03T02:32:05;97451.94;;;2.89;100.00
6829;BME280;17930;48.592;8.868;2023-04-03T02:34:32;97443.97;;;2.97;100.00
6829;BME280;17930;48.592;8.868;2023-04-03T02:36:59;97449.94;;;2.91;100.00
6829;BME280;17930;48.592;8.868;2023-04-03T02:39:25;97445.81;;;2.83;100.00
6829;BME280;17930;48.592;8.868;2023-04-03T02:41:53;97443.25;;;2.77;100.00
6829;BME280;17930;48.592;8.868;2023-04-03T02:44:20;97438.72;;;2.79;100.00
6829;BME280;17930;48.592;8.868;2023-04-03T02:46:47;97436.78;;;2.68;100.00
6829;BME280;17930;48.592;8.868;2023-04-03T02:49:14;97447.50;;;2.65;100.00
6829;BME280;17930;48.592;8.868;2023-04-03T02:51:41;97448.06;;;2.67;100.00
6829;BME280;17930;48.592;8.868;2023-04-03T02:54:10;97445.91;;;2.64;100.00
6829;BME280;17930;48.592;8.868;2023-04-03T02:56:37;97447.09;;;2.68;100.00
6829;BME280;17930;48.592;8.868;2023-04-03T02:59:05;97439.78;;;2.65;100.00
6829;BME280;17930;48.592;8.868;2023-04-03T03:01:32;97453.22;;;2.67;100.00
6829;BME280;17930;48.592;8.868;2023-04-03T03:03:59;97450.06;;;2.65;100.00
6829;BME280;17930;48.592;8.868;2023-04-03T03:06:26;97444.69;;;2.73;100.00
6829;BME280;17930;48.592;8.868;2023-04-03T03:08:53;97442.16;;;2.66;100.00
6829;BME280;17930;48.592;8.868;2023-04-03T03:11:20;97432.63;;;2.67;100.00
6829;BME280;17930;48.592;8.868;2023-04-03T03:13:47;97436.38;;;2.71;100.00
6829;BME280;17930;48.592;8.868;2023-04-03T03:16:15;97429.66;;;2.70;100.00
6829;BME280;17930;48.592;8.868;2023-04-03T03:18:42;97432.63;;;2.67;100.00
6829;BME280;17930;48.592;8.868;2023-04-03T03:21:09;97434.66;;;2.58;100.00
6829;BME280;17930;48.592;8.868;2023-04-03T03:23:38;97434.28;;;2.55;100.00
6829;BME280;17930;48.592;8.868;2023-04-03T03:26:07;97436.69;;;2.50;100.00
6829;BME280;17930;48.592;8.868;2023-04-03T03:28:34;97440.03;;;2.51;100.00
6829;BME280;17930;48.592;8.868;2023-04-03T03:31:02;97441.03;;;2.50;100.00
6829;BME280;17930;48.592;8.868;2023-04-03T03:33:30;97435.06;;;2.55;100.00
6829;BME280;17930;48.592;8.868;2023-04-03T03:35:57;97435.25;;;2.54;100.00
6829;BME280;17930;48.592;8.868;2023-04-03T03:38:28;97436.03;;;2.61;100.00
6829;BME280;17930;48.592;8.868;2023-04-03T03:40:54;97436.56;;;2.76;100.00
6829;BME280;17930;48.592;8.868;2023-04-03T03:43:21;97439.56;;;2.73;100.00
6829;BME280;17930;48.592;8.868;2023-04-03T03:45:50;97427.09;;;2.70;100.00
6829;BME280;17930;48.592;8.868;2023-04-03T03:48:17;97439.72;;;2.78;100.00
6829;BME280;17930;48.592;8.868;2023-04-03T03:50:46;97433.72;;;2.84;100.00
6829;BME280;17930;48.592;8.868;2023-04-03T03:53:13;97439.69;;;2.84;100.00
6829;BME280;17930;48.592;8.868;2023-04-03T03:55:41;97445.63;;;2.85;100.00
6829;BME280;17930;48.592;8.868;2023-04-03T03:58:08;97447.22;;;2.86;100.00
6829;BME280;17930;48.592;8.868;2023-04-03T04:00:35;97442.69;;;2.81;100.00
6829;BME280;17930;48.592;8.868;2023-04-03T04:03:01;97440.53;;;2.78;100.00
6829;BME280;17930;48.592;8.868;2023-04-03T04:05:28;97444.84;;;2.78;100.00
6829;BME280;17930;48.592;8.868;2023-04-03T04:07:57;97447.16;;;2.92;100.00
6829;BME280;17930;48.592;8.868;2023-04-03T04:10:23;97445.59;;;2.91;100.00
6829;BME280;17930;48.592;8.868;2023-04-03T04:12:50;97447.78;;;2.88;100.00
6829;BME280;17930;48.592;8.868;2023-04-03T04:15:20;97446.19;;;2.87;100.00
6829;BME280;17930;48.592;8.868;2023-04-03T04:17:48;97449.78;;;2.86;100.00
6829;BME280;17930;48.592;8.868;2023-04-03T04:20:15;97451.94;;;2.89;100.00
6829;BME280;17930;48.592;8.868;2023-04-03T04:22:42;97460.84;;;2.93;100.00
6829;BME280;17930;48.592;8.868;2023-04-03T04:25:10;97453.53;;;2.90;100.00
6829;BME280;17930;48.592;8.868;2023-04-03T04:27:37;97459.06;;;2.87;100.00
6829;BME280;17930;48.592;8.868;2023-04-03T04:30:06;97451.53;;;2.85;100.00
6829;BME280;17930;48.592;8.868;2023-04-03T04:32:33;97455.50;;;2.88;100.00
6829;BME280;17930;48.592;8.868;2023-04-03T04:35:03;97457.09;;;2.89;100.00
6829;BME280;17930;48.592;8.868;2023-04-03T04:37:30;97466.44;;;2.83;100.00
6829;BME280;17930;48.592;8.868;2023-04-03T04:39:56;97459.88;;;2.81;100.00
6829;BME280;17930;48.592;8.868;2023-04-03T04:42:24;97458.72;;;2.77;100.00
6829;BME280;17930;48.592;8.868;2023-04-03T04:44:51;97458.34;;;2.73;100.00
6829;BME280;17930;48.592;8.868;2023-04-03T04:47:18;97451.94;;;2.89;100.00
6829;BME280;17930;48.592;8.868;2023-04-03T04:49:44;97453.13;;;2.93;100.00
6829;BME280;17930;48.592;8.868;2023-04-03T04:52:12;97463.81;;;2.90;100.00
6829;BME280;17930;48.592;8.868;2023-04-03T04:54:39;97465.03;;;2.81;100.00
6829;BME280;17930;48.592;8.868;2023-04-03T04:57:06;97471.38;;;2.85;100.00
6829;BME280;17930;48.592;8.868;2023-04-03T04:59:34;97471.16;;;2.86;100.00
6829;BME280;17930;48.592;8.868;2023-04-03T05:02:00;97471.16;;;2.86;100.00
6829;BME280;17930;48.592;8.868;2023-04-03T05:04:27;97476.50;;;2.85;100.00
6829;BME280;17930;48.592;8.868;2023-04-03T05:06:54;97483.66;;;2.83;100.00
6829;BME280;17930;48.592;8.868;2023-04-03T05:09:20;97478.09;;;2.86;100.00
6829;BME280;17930;48.592;8.868;2023-04-03T05:11:47;97483.63;;;2.89;100.00
6829;BME280;17930;48.592;8.868;2023-04-03T05:14:14;97475.03;;;3.02;100.00
6829;BME280;17930;48.592;8.868;2023-04-03T05:16:42;97478.38;;;3.08;100.00
6829;BME280;17930;48.592;8.868;2023-04-03T05:19:08;97484.84;;;3.17;100.00
6829;BME280;17930;48.592;8.868;2023-04-03T05:21:35;97486.44;;;3.18;100.00
6829;BME280;17930;48.592;8.868;2023-04-03T05:24:02;97488.63;;;3.15;100.00
6829;BME280;17930;48.592;8.868;2023-04-03T05:26:29;97487.03;;;3.20;100.00
6829;BME280;17930;48.592;8.868;2023-04-03T05:28:56;97491.59;;;3.18;100.00
6829;BME280;17930;48.592;8.868;2023-04-03T05:31:23;97489.03;;;3.12;100.00
6829;BME280;17930;48.592;8.868;2023-04-03T05:33:51;97484.63;;;3.25;100.00
6829;BME280;17930;48.592;8.868;2023-04-03T05:36:18;97496.09;;;3.29;100.00
6829;BME280;17930;48.592;8.868;2023-04-03T05:38:45;97495.50;;;3.27;100.00
6829;BME280;17930;48.592;8.868;2023-04-03T05:41:12;97492.56;;;3.24;100.00
6829;BME280;17930;48.592;8.868;2023-04-03T05:43:39;97494.63;;;3.40;100.00
6829;BME280;17930;48.592;8.868;2023-04-03T05:46:09;97496.59;;;3.44;100.00
6829;BME280;17930;48.592;8.868;2023-04-03T05:48:36;97505.91;;;3.45;100.00
6829;BME280;17930;48.592;8.868;2023-04-03T05:51:06;97499.59;;;3.41;100.00
6829;BME280;17930;48.592;8.868;2023-04-03T05:53:35;97494.59;;;3.46;100.00
6829;BME280;17930;48.592;8.868;2023-04-03T05:56:03;97497.91;;;3.53;100.00
6829;BME280;17930;48.592;8.868;2023-04-03T05:58:30;97497.84;;;3.66;100.00
6829;BME280;17930;48.592;8.868;2023-04-03T06:00:56;97503.97;;;3.65;100.00
6829;BME280;17930;48.592;8.868;2023-04-03T06:03:23;97501.81;;;3.62;100.00
6829;BME280;17930;48.592;8.868;2023-04-03T06:05:50;97499.75;;;3.46;100.00
6829;BME280;17930;48.592;8.868;2023-04-03T06:08:18;97512.28;;;3.67;100.00
6829;BME280;17930;48.592;8.868;2023-04-03T06:10:45;97499.47;;;3.85;100.00
6829;BME280;17930;48.592;8.868;2023-04-03T06:13:12;97497.50;;;4.05;100.00
6829;BME280;17930;48.592;8.868;2023-04-03T06:15:39;97499.69;;;4.25;100.00
6829;BME280;17930;48.592;8.868;2023-04-03T06:18:05;97497.63;;;4.34;100.00
6829;BME280;17930;48.592;8.868;2023-04-03T06:20:32;97500.81;;;4.29;100.00
6829;BME280;17930;48.592;8.868;2023-04-03T06:22:59;97497.72;;;4.21;100.00
6829;BME280;17930;48.592;8.868;2023-04-03T06:25:27;97507.00;;;4.46;100.00
6829;BME280;17930;48.592;8.868;2023-04-03T06:27:54;97506.09;;;4.41;100.00
6829;BME280;17930;48.592;8.868;2023-04-03T06:30:21;97504.88;;;4.61;100.00
6829;BME280;17930;48.592;8.868;2023-04-03T06:32:48;97508.75;;;4.70;100.00
6829;BME280;17930;48.592;8.868;2023-04-03T06:35:15;97509.16;;;4.85;100.00
6829;BME280;17930;48.592;8.868;2023-04-03T06:37:41;97508.16;;;4.86;100.00
6829;BME280;17930;48.592;8.868;2023-04-03T06:40:12;97513.59;;;4.96;100.00
6829;BME280;17930;48.592;8.868;2023-04-03T06:42:43;97512.19;;;4.82;100.00
6829;BME280;17930;48.592;8.868;2023-04-03T06:45:10;97515.69;;;4.87;100.00
6829;BME280;17930;48.592;8.868;2023-04-03T06:47:37;97516.84;;;4.73;100.00
6829;BME280;17930;48.592;8.868;2023-04-03T06:50:04;97516.06;;;4.73;100.00
6829;BME280;17930;48.592;8.868;2023-04-03T06:52:31;97518.13;;;4.64;100.00
6829;BME280;17930;48.592;8.868;2023-04-03T06:54:58;97524.19;;;4.76;100.00
6829;BME280;17930;48.592;8.868;2023-04-03T06:57:25;97521.94;;;4.80;100.00
6829;BME280;17930;48.592;8.868;2023-04-03T06:59:53;97527.19;;;4.73;100.00
6829;BME280;17930;48.592;8.868;2023-04-03T07:02:33;97525.69;;;4.48;100.00
6829;BME280;17930;48.592;8.868;2023-04-03T07:05:38;97522.53;;;4.64;100.00
6829;BME280;17930;48.592;8.868;2023-04-03T07:08:05;97528.53;;;4.76;100.00
6829;BME280;17930;48.592;8.868;2023-04-03T07:10:32;97527.97;;;4.92;100.00
6829;BME280;17930;48.592;8.868;2023-04-03T07:12:58;97528.41;;;4.89;100.00
6829;BME280;17930;48.592;8.868;2023-04-03T07:15:28;97525.38;;;4.92;100.00
6829;BME280;17930;48.592;8.868;2023-04-03T07:17:55;97535.56;;;4.87;100.00
6829;BME280;17930;48.592;8.868;2023-04-03T07:20:22;97529.75;;;5.09;100.00
6829;BME280;17930;48.592;8.868;2023-04-03T07:22:48;97535.22;;;5.30;100.00
6829;BME280;17930;48.592;8.868;2023-04-03T07:25:16;97536.31;;;5.52;100.00
6829;BME280;17930;48.592;8.868;2023-04-03T07:27:42;97528.72;;;5.39;100.00
6829;BME280;17930;48.592;8.868;2023-04-03T07:30:10;97530.97;;;5.65;100.00
6829;BME280;17930;48.592;8.868;2023-04-03T07:32:40;97534.75;;;5.92;100.00
6829;BME280;17930;48.592;8.868;2023-04-03T07:35:07;97533.78;;;6.15;100.00
6829;BME280;17930;48.592;8.868;2023-04-03T07:37:34;97541.53;;;6.04;100.00
6829;BME280;17930;48.592;8.868;2023-04-03T07:40:00;97546.81;;;5.98;100.00
6829;BME280;17930;48.592;8.868;2023-04-03T07:42:28;97549.31;;;6.38;100.00
6829;BME280;17930;48.592;8.868;2023-04-03T07:44:55;97539.38;;;6.58;100.00
6829;BME280;17930;48.592;8.868;2023-04-03T07:47:22;97551.44;;;6.30;100.00
6829;BME280;17930;48.592;8.868;2023-04-03T07:49:50;97540.53;;;6.28;100.00
6829;BME280;17930;48.592;8.868;2023-04-03T07:52:17;97539.63;;;6.45;100.00
6829;BME280;17930;48.592;8.868;2023-04-03T07:54:43;97537.16;;;6.50;100.00
6829;BME280;17930;48.592;8.868;2023-04-03T07:57:10;97545.50;;;6.29;100.00
6829;BME280;17930;48.592;8.868;2023-04-03T07:59:37;97546.41;;;6.46;100.00
6829;BME280;17930;48.592;8.868;2023-04-03T08:02:05;97545.03;;;6.55;100.00
6829;BME280;17930;48.592;8.868;2023-04-03T08:04:31;97545.88;;;6.95;100.00
6829;BME280;17930;48.592;8.868;2023-04-03T08:06:59;97544.97;;;7.01;100.00
6829;BME280;17930;48.592;8.868;2023-04-03T08:09:26;97533.69;;;7.62;100.00
6829;BME280;17930;48.592;8.868;2023-04-03T08:11:52;97541.44;;;7.90;100.00
6829;BME280;17930;48.592;8.868;2023-04-03T08:14:19;97535.09;;;8.46;100.00
6829;BME280;17930;48.592;8.868;2023-04-03T08:16:47;97536.09;;;8.29;100.00
6829;BME280;17930;48.592;8.868;2023-04-03T08:19:14;97544.59;;;7.92;100.00
6829;BME280;17930;48.592;8.868;2023-04-03T08:21:42;97541.66;;;7.72;100.00
6829;BME280;17930;48.592;8.868;2023-04-03T08:24:11;97540.47;;;8.23;100.00
6829;BME280;17930;48.592;8.868;2023-04-03T08:26:37;97549.19;;;8.34;100.00
6829;BME280;17930;48.592;8.868;2023-04-03T08:29:04;97553.00;;;7.99;100.00
6829;BME280;17930;48.592;8.868;2023-04-03T08:31:31;97549.78;;;7.92;100.00
6829;BME280;17930;48.592;8.868;2023-04-03T08:33:57;97550.56;;;7.76;100.00
6829;BME280;17930;48.592;8.868;2023-04-03T08:36:26;97555.22;;;7.90;100.00
6829;BME280;17930;48.592;8.868;2023-04-03T08:38:55;97561.34;;;7.57;100.00
6829;BME280;17930;48.592;8.868;2023-04-03T08:41:29;97556.59;;;7.37;100.00
6829;BME280;17930;48.592;8.868;2023-04-03T08:44:13;97554.81;;;7.26;100.00
6829;BME280;17930;48.592;8.868;2023-04-03T08:46:52;97555.09;;;7.13;100.00
6829;BME280;17930;48.592;8.868;2023-04-03T08:49:26;97562.88;;;7.41;100.00
6829;BME280;17930;48.592;8.868;2023-04-03T08:51:54;97555.22;;;8.07;100.00
6829;BME280;17930;48.592;8.868;2023-04-03T08:54:29;97553.97;;;8.42;100.00
6829;BME280;17930;48.592;8.868;2023-04-03T08:57:00;97559.78;;;8.00;100.00
6829;BME280;17930;48.592;8.868;2023-04-03T08:59:33;97557.22;;;8.32;100.00
6829;BME280;17930;48.592;8.868;2023-04-03T09:02:04;97562.88;;;7.97;100.00
6829;BME280;17930;48.592;8.868;2023-04-03T09:04:32;97570.97;;;7.56;100.00
6829;BME280;17930;48.592;8.868;2023-04-03T09:07:04;97563.69;;;7.42;100.00
6829;BME280;17930;48.592;8.868;2023-04-03T09:09:36;97564.47;;;7.42;100.00
6829;BME280;17930;48.592;8.868;2023-04-03T09:12:15;97570.00;;;7.07;100.00
6829;BME280;17930;48.592;8.868;2023-04-03T09:14:49;97572.25;;;6.92;100.00
6829;BME280;17930;48.592;8.868;2023-04-03T09:17:26;97570.16;;;6.77;100.00
6829;BME280;17930;48.592;8.868;2023-04-03T09:20:04;97577.47;;;6.46;100.00
6829;BME280;17930;48.592;8.868;2023-04-03T09:22:36;97573.53;;;6.55;100.00
6829;BME280;17930;48.592;8.868;2023-04-03T09:25:10;97574.88;;;6.80;100.00
6829;BME280;17930;48.592;8.868;2023-04-03T09:27:40;97570.91;;;7.01;100.00
6829;BME280;17930;48.592;8.868;2023-04-03T09:30:12;97574.50;;;7.00;100.00
6829;BME280;17930;48.592;8.868;2023-04-03T09:32:40;97563.44;;;7.43;100.00
6829;BME280;17930;48.592;8.868;2023-04-03T09:35:17;97554.38;;;7.57;100.00
6829;BME280;17930;48.592;8.868;2023-04-03T09:37:47;97561.03;;;7.53;100.00
6829;BME280;17930;48.592;8.868;2023-04-03T09:40:33;97565.09;;;7.21;100.00
6829;BME280;17930;48.592;8.868;2023-04-03T09:43:08;97565.03;;;7.05;100.00
6829;BME280;17930;48.592;8.868;2023-04-03T09:45:47;97557.88;;;7.51;100.00
6829;BME280;17930;48.592;8.868;2023-04-03T09:48:17;97557.69;;;7.69;100.00
6829;BME280;17930;48.592;8.868;2023-04-03T09:50:59;97564.97;;;7.56;100.00
6829;BME280;17930;48.592;8.868;2023-04-03T09:53:35;97560.41;;;7.63;100.00
6829;BME280;17930;48.592;8.868;2023-04-03T09:56:04;97565.28;;;8.03;100.00
6829;BME280;17930;48.592;8.868;2023-04-03T09:58:38;97559.53;;;7.85;100.00
6829;BME280;17930;48.592;8.868;2023-04-03T10:01:08;97553.38;;;7.91;100.00
6829;BME280;17930;48.592;8.868;2023-04-03T10:04:03;97552.97;;;7.66;100.00
6829;BME280;17930;48.592;8.868;2023-04-03T10:06:32;97554.75;;;7.49;100.00
6829;BME280;17930;48.592;8.868;2023-04-03T10:09:02;97555.00;;;7.36;100.00
6829;BME280;17930;48.592;8.868;2023-04-03T10:11:30;97556.50;;;7.60;100.00
6829;BME280;17930;48.592;8.868;2023-04-03T10:13:59;97550.44;;;7.55;100.00
6829;BME280;17930;48.592;8.868;2023-04-03T10:16:32;97554.16;;;7.75;100.00
6829;BME280;17930;48.592;8.868;2023-04-03T10:19:13;97557.16;;;7.67;100.00
6829;BME280;17930;48.592;8.868;2023-04-03T10:21:46;97553.91;;;7.32;100.00
6829;BME280;17930;48.592;8.868;2023-04-03T10:24:18;97557.00;;;7.18;100.00
6829;BME280;17930;48.592;8.868;2023-04-03T10:26:56;97551.22;;;7.16;100.00
6829;BME280;17930;48.592;8.868;2023-04-03T10:29:34;97549.03;;;7.36;100.00
6829;BME280;17930;48.592;8.868;2023-04-03T10:32:13;97550.38;;;7.82;100.00
6829;BME280;17930;48.592;8.868;2023-04-03T10:34:44;97553.97;;;7.65;100.00
6829;BME280;17930;48.592;8.868;2023-04-03T10:37:17;97550.72;;;8.02;100.00
6829;BME280;17930;48.592;8.868;2023-04-03T10:39:53;97533.88;;;9.13;100.00
6829;BME280;17930;48.592;8.868;2023-04-03T10:42:29;97539.25;;;9.27;100.00
6829;BME280;17930;48.592;8.868;2023-04-03T10:45:21;97538.03;;;9.14;100.00
6829;BME280;17930;48.592;8.868;2023-04-03T10:47:58;97536.41;;;8.49;100.00
6829;BME280;17930;48.592;8.868;2023-04-03T10:50:38;97545.06;;;7.89;100.00
6829;BME280;17930;48.592;8.868;2023-04-03T10:53:19;97551.66;;;7.80;100.00
6829;BME280;17930;48.592;8.868;2023-04-03T10:55:53;97537.94;;;7.68;100.00
6829;BME280;17930;48.592;8.868;2023-04-03T10:58:27;97546.78;;;7.39;100.00
6829;BME280;17930;48.592;8.868;2023-04-03T11:01:01;97543.53;;;7.32;100.00
6829;BME280;17930;48.592;8.868;2023-04-03T11:03:32;97547.19;;;7.48;100.00
6829;BME280;17930;48.592;8.868;2023-04-03T11:06:05;97546.31;;;7.70;100.00
6829;BME280;17930;48.592;8.868;2023-04-03T11:08:37;97542.47;;;7.89;100.00
6829;BME280;17930;48.592;8.868;2023-04-03T11:11:08;97538.84;;;7.90;100.00
6829;BME280;17930;48.592;8.868;2023-04-03T11:13:40;97544.09;;;7.78;100.00
6829;BME280;17930;48.592;8.868;2023-04-03T11:16:13;97536.81;;;7.64;100.00
6829;BME280;17930;48.592;8.868;2023-04-03T11:18:46;97548.31;;;7.68;100.00
6829;BME280;17930;48.592;8.868;2023-04-03T11:21:19;97544.72;;;7.69;100.00
6829;BME280;17930;48.592;8.868;2023-04-03T11:23:47;97540.81;;;7.55;100.00
6829;BME280;17930;48.592;8.868;2023-04-03T11:26:16;97533.84;;;7.72;100.00
6829;BME280;17930;48.592;8.868;2023-04-03T11:28:43;97537.97;;;8.01;100.00
6829;BME280;17930;48.592;8.868;2023-04-03T11:31:23;97525.88;;;8.22;100.00
6829;BME280;17930;48.592;8.868;2023-04-03T11:34:01;97523.91;;;8.67;100.00
6829;BME280;17930;48.592;8.868;2023-04-03T11:36:32;97529.13;;;8.67;100.00
6829;BME280;17930;48.592;8.868;2023-04-03T11:39:09;97516.56;;;8.43;99.36
6829;BME280;17930;48.592;8.868;2023-04-03T11:41:42;97518.28;;;8.54;98.81
6829;BME280;17930;48.592;8.868;2023-04-03T11:44:30;97525.31;;;8.53;98.08
6829;BME280;17930;48.592;8.868;2023-04-03T11:47:00;97521.78;;;8.80;100.00
6829;BME280;17930;48.592;8.868;2023-04-03T11:49:55;97525.06;;;8.55;100.00
6829;BME280;17930;48.592;8.868;2023-04-03T11:53:00;97524.53;;;8.74;100.00
6829;BME280;17930;48.592;8.868;2023-04-03T11:55:53;97521.56;;;8.66;97.87
6829;BME280;17930;48.592;8.868;2023-04-03T11:58:21;97513.34;;;8.73;95.40
6829;BME280;17930;48.592;8.868;2023-04-03T12:01:08;97523.03;;;8.99;99.12
6829;BME280;17930;48.592;8.868;2023-04-03T12:04:08;97509.75;;;8.74;98.81
6829;BME280;17930;48.592;8.868;2023-04-03T12:07:08;97513.53;;;8.67;100.00
6829;BME280;17930;48.592;8.868;2023-04-03T12:09:58;97512.63;;;8.78;100.00
6829;BME280;17930;48.592;8.868;2023-04-03T12:12:33;97510.91;;;8.67;100.00
6829;BME280;17930;48.592;8.868;2023-04-03T12:15:22;97513.38;;;8.57;100.00
6829;BME280;17930;48.592;8.868;2023-04-03T12:17:49;97513.22;;;9.27;100.00
6829;BME280;17930;48.592;8.868;2023-04-03T12:20:56;97505.38;;;9.75;98.78
6829;BME280;17930;48.592;8.868;2023-04-03T12:23:28;97504.34;;;10.38;93.50
6829;BME280;17930;48.592;8.868;2023-04-03T12:26:04;97500.19;;;10.06;90.80
6829;BME280;17930;48.592;8.868;2023-04-03T12:28:37;97498.16;;;9.29;92.83
6829;BME280;17930;48.592;8.868;2023-04-03T12:31:08;97506.28;;;8.69;95.34
6829;BME280;17930;48.592;8.868;2023-04-03T12:33:47;97505.88;;;8.39;94.99
6829;BME280;17930;48.592;8.868;2023-04-03T12:36:30;97509.00;;;8.09;96.99
6829;BME280;17930;48.592;8.868;2023-04-03T12:39:15;97506.53;;;8.51;96.28
6829;BME280;17930;48.592;8.868;2023-04-03T12:41:52;97492.75;;;9.10;91.53
6829;BME280;17930;48.592;8.868;2023-04-03T12:44:37;97490.34;;;9.87;89.71
6829;BME280;17930;48.592;8.868;2023-04-03T12:47:21;97497.34;;;10.08;83.46
6829;BME280;17930;48.592;8.868;2023-04-03T12:49:49;97493.50;;;9.58;82.14
6829;BME280;17930;48.592;8.868;2023-04-03T12:52:22;97487.47;;;9.05;81.45
6829;BME280;17930;48.592;8.868;2023-04-03T12:54:51;97490.25;;;8.98;83.88
6829;BME280;17930;48.592;8.868;2023-04-03T12:57:19;97491.19;;;8.50;84.75
6829;BME280;17930;48.592;8.868;2023-04-03T12:59:46;97493.31;;;8.15;88.90
6829;BME280;17930;48.592;8.868;2023-04-03T13:02:25;97505.41;;;7.77;91.62
6829;BME280;17930;48.592;8.868;2023-04-03T13:04:54;97501.41;;;7.42;95.62
6829;BME280;17930;48.592;8.868;2023-04-03T13:07:28;97504.41;;;7.50;96.10
6829;BME280;17930;48.592;8.868;2023-04-03T13:09:59;97496.63;;;7.50;96.57
6829;BME280;17930;48.592;8.868;2023-04-03T13:12:26;97499.06;;;7.40;97.82
6829;BME280;17930;48.592;8.868;2023-04-03T13:14:55;97498.88;;;7.30;100.00
6829;BME280;17930;48.592;8.868;2023-04-03T13:17:24;97498.19;;;7.51;100.00
6829;BME280;17930;48.592;8.868;2023-04-03T13:19:51;97508.56;;;7.51;100.00
6829;BME280;17930;48.592;8.868;2023-04-03T13:22:29;97499.09;;;7.29;99.55
6829;BME280;17930;48.592;8.868;2023-04-03T13:25:00;97501.66;;;7.57;99.22
6829;BME280;17930;48.592;8.868;2023-04-03T13:27:30;97493.28;;;7.66;96.15
6829;BME280;17930;48.592;8.868;2023-04-03T13:29:59;97494.72;;;8.22;98.28
6829;BME280;17930;48.592;8.868;2023-04-03T13:32:28;97484.78;;;9.47;91.92